Terminal Aerodrome Forecast
Issued by NWS St Louis, MO

Home | Current Version | Previous Version | Text Only | Print | Product List | Glossary On
Versions: 1 2 3 4 5 6 7 8 9 10 11 12 13 14 15 16 17 18
000
FTUS43 KLSX 281017 AAD
TAFCOU
TAF AMD
KCOU 281017Z 2810/0106 17013KT P6SM OVC018
     FM281400 19014G21KT P6SM OVC025
     FM281600 20015G23KT P6SM BKN040
     FM010000 20011G19KT P6SM VCTS BKN090CB
     FM010300 22011G18KT 5SM -SHRA VCTS SCT025CB BKN090=

USA.gov is the U.S. government's official web portal to all federal, state and local government web resources and services.